Prospect, Oregon
Current Conditions -  °F | °C
As of 4:53 AM on Wednesday 22 Oct 2014 (Local Time) from KMFR Reporting Station
Clear Clear  
Wind Chill: 52°   Ceiling: Unl
Heat Index: 52°   Visibility: 10mi
Dew Point: 49°   Wind: 3mph
Humidity: 89%   Direction: 170°S
Pressure: 29.97"   Gusts: NA
Location:  42.75°N, 122.49°W
Report Text: KMFR 221153Z AUTO 17003KT 10SM CLR 11/09 A2997 RMK AO2 SLP144 T01110094 10122 20111 58004
Loading
Personal Weather Stations






























Interactive Weather Map
Tropical Storm Tracking
New forecast layout! Learn more

10-Day Weather Forecast

Advertisements
Track Severe Weather on mobile